createdAt,value
2018-05-14T00:00:25.019Z,5.47
2018-05-14T00:02:53.914Z,4.70
2018-05-14T00:05:22.822Z,5.00
2018-05-14T00:07:51.828Z,5.03
2018-05-14T00:10:20.712Z,5.10
2018-05-14T00:12:49.750Z,4.53
2018-05-14T00:15:18.820Z,4.30
2018-05-14T00:17:47.728Z,4.17
2018-05-14T00:20:16.655Z,4.50
2018-05-14T00:22:45.691Z,4.60
2018-05-14T00:25:14.619Z,4.00
2018-05-14T00:27:43.488Z,4.43
2018-05-14T00:30:12.494Z,4.57
2018-05-14T00:32:41.460Z,4.37
2018-05-14T00:35:10.349Z,4.07
2018-05-14T00:37:39.328Z,4.27
2018-05-14T00:40:08.229Z,3.93
2018-05-14T00:42:37.214Z,4.13
2018-05-14T00:45:06.177Z,4.73
2018-05-14T00:47:35.053Z,4.27
2018-05-14T00:50:04.073Z,3.93
2018-05-14T00:52:33.093Z,4.00
2018-05-14T00:55:02.007Z,3.93
2018-05-14T00:57:30.883Z,4.17
2018-05-14T00:59:59.832Z,3.83
2018-05-14T01:02:28.762Z,4.17
2018-05-14T01:04:57.663Z,3.43
2018-05-14T01:07:26.604Z,4.20
2018-05-14T01:09:55.553Z,4.20
2018-05-14T01:12:24.513Z,4.13
2018-05-14T01:14:53.473Z,4.33
2018-05-14T01:17:22.353Z,3.97
2018-05-14T01:19:51.286Z,3.50
2018-05-14T01:22:20.249Z,4.00
2018-05-14T01:24:49.156Z,3.70
2018-05-14T01:27:18.035Z,4.07
2018-05-14T01:29:47.159Z,3.87
2018-05-14T01:32:16.069Z,4.10
2018-05-14T01:34:44.992Z,4.47
2018-05-14T01:37:14.089Z,4.00
2018-05-14T01:39:42.977Z,4.07
2018-05-14T01:42:11.894Z,3.80
2018-05-14T01:44:40.878Z,4.30
2018-05-14T01:47:09.806Z,3.93
2018-05-14T01:49:38.730Z,3.80
2018-05-14T01:52:07.681Z,4.20
2018-05-14T01:54:36.644Z,3.50
2018-05-14T01:57:05.518Z,3.97
2018-05-14T01:59:34.574Z,4.10
2018-05-14T02:02:03.515Z,4.30
2018-05-14T02:04:32.440Z,4.00
2018-05-14T02:07:01.391Z,4.20
2018-05-14T02:09:30.293Z,4.33
2018-05-14T02:11:59.224Z,4.40
2018-05-14T02:14:28.203Z,3.87
2018-05-14T02:16:57.103Z,4.30
2018-05-14T02:19:26.014Z,3.63
2018-05-14T02:21:54.955Z,4.23
2018-05-14T02:24:23.902Z,4.13
2018-05-14T02:26:52.822Z,3.60
2018-05-14T02:29:21.836Z,4.10
2018-05-14T02:31:50.669Z,4.20
2018-05-14T02:34:19.633Z,4.00
2018-05-14T02:36:48.572Z,4.30
2018-05-14T02:39:17.472Z,4.03
2018-05-14T02:41:46.412Z,4.57
2018-05-14T02:44:15.349Z,4.33
2018-05-14T02:46:44.264Z,4.43
2018-05-14T02:49:13.172Z,4.20
2018-05-14T02:51:42.135Z,4.10
2018-05-14T02:54:11.035Z,4.07
2018-05-14T02:56:39.920Z,4.33
2018-05-14T02:59:08.879Z,4.50
2018-05-14T03:01:37.819Z,4.50
2018-05-14T03:04:06.727Z,4.70
2018-05-14T03:06:35.707Z,4.93
2018-05-14T03:09:04.622Z,4.63
2018-05-14T03:11:33.501Z,4.50
2018-05-14T03:14:02.471Z,4.53
2018-05-14T03:16:31.409Z,5.87
2018-05-14T03:19:00.335Z,4.97
2018-05-14T03:21:29.351Z,5.20
2018-05-14T03:23:58.352Z,6.03
2018-05-14T03:26:27.268Z,4.20
2018-05-14T03:28:56.343Z,4.90
2018-05-14T03:31:25.357Z,4.77
2018-05-14T03:33:54.251Z,4.90
2018-05-14T03:36:23.253Z,5.03
2018-05-14T03:38:52.137Z,4.83
2018-05-14T03:41:21.089Z,4.40
2018-05-14T03:43:50.087Z,5.00
2018-05-14T03:46:19.043Z,4.73
2018-05-14T03:48:47.957Z,5.53
2018-05-14T03:51:16.918Z,5.13
2018-05-14T03:53:45.853Z,5.00
2018-05-14T03:56:14.790Z,5.77
2018-05-14T03:58:43.772Z,5.20
2018-05-14T04:01:12.686Z,5.27
2018-05-14T04:03:41.570Z,4.90
2018-05-14T04:06:10.605Z,4.90
2018-05-14T04:08:39.565Z,5.10
2018-05-14T04:11:08.491Z,4.73
2018-05-14T04:13:37.464Z,4.90
2018-05-14T04:16:06.387Z,5.43
2018-05-14T04:18:35.321Z,5.87
2018-05-14T04:21:04.263Z,5.17
2018-05-14T04:23:33.170Z,4.97
2018-05-14T04:26:04.024Z,5.60
2018-05-14T04:28:32.969Z,5.33
2018-05-14T04:31:01.925Z,5.10
2018-05-14T04:33:31.160Z,6.17
2018-05-14T04:36:00.140Z,5.67
2018-05-14T04:38:29.081Z,4.70
2018-05-14T04:40:58.054Z,5.90
2018-05-14T04:43:26.961Z,5.47
2018-05-14T04:45:55.922Z,5.47
2018-05-14T04:48:24.812Z,5.53
2018-05-14T04:50:56.817Z,5.57
2018-05-14T04:53:25.810Z,4.93
2018-05-14T04:55:54.845Z,5.27
2018-05-14T04:58:24.031Z,5.50
2018-05-14T05:00:53.025Z,5.10
2018-05-14T05:03:21.976Z,4.87
2018-05-14T05:05:50.890Z,4.53
2018-05-14T05:08:19.879Z,4.93
2018-05-14T05:10:48.818Z,4.80
2018-05-14T05:13:17.767Z,4.80
2018-05-14T05:15:46.718Z,4.43
2018-05-14T05:18:15.660Z,5.03
2018-05-14T05:20:44.585Z,5.37
2018-05-14T05:23:13.569Z,5.10
2018-05-14T05:25:42.494Z,5.90
2018-05-14T05:28:11.407Z,6.10
2018-05-14T05:30:41.489Z,7.13
2018-05-14T05:33:10.405Z,6.93
2018-05-14T05:35:39.375Z,6.03
2018-05-14T05:38:08.328Z,5.13
2018-05-14T05:40:37.250Z,5.00
2018-05-14T05:43:06.158Z,4.17
2018-05-14T05:45:35.144Z,4.33
2018-05-14T05:48:04.066Z,4.67
2018-05-14T05:50:32.989Z,4.30
2018-05-14T05:53:01.977Z,4.70
2018-05-14T05:55:30.903Z,4.40
2018-05-14T05:57:59.830Z,5.03
2018-05-14T06:00:28.804Z,4.80
2018-05-14T06:02:57.725Z,4.93
2018-05-14T06:05:26.640Z,5.17
2018-05-14T06:07:55.615Z,4.70
2018-05-14T06:10:24.527Z,5.20
2018-05-14T06:12:53.422Z,5.27
2018-05-14T06:15:22.446Z,5.37
2018-05-14T06:17:51.300Z,5.87
2018-05-14T06:20:20.244Z,6.17
2018-05-14T06:22:49.208Z,5.50
2018-05-14T06:25:18.104Z,5.33
2018-05-14T06:27:47.100Z,4.93
2018-05-14T06:30:16.021Z,4.67
2018-05-14T06:32:45.052Z,4.80
2018-05-14T06:35:14.024Z,4.37
2018-05-14T06:37:42.924Z,4.90
2018-05-14T06:40:11.887Z,5.10
2018-05-14T06:42:41.137Z,4.77
2018-05-14T06:45:10.040Z,5.23
2018-05-14T06:47:39.004Z,4.33
2018-05-14T06:50:07.911Z,4.60
2018-05-14T06:52:36.859Z,4.83
2018-05-14T06:55:05.900Z,4.53
2018-05-14T06:57:34.769Z,4.33
2018-05-14T07:00:03.778Z,4.53
2018-05-14T07:02:32.732Z,4.20
2018-05-14T07:05:01.661Z,4.40
2018-05-14T07:07:30.600Z,4.00
2018-05-14T07:09:59.719Z,3.63
2018-05-14T07:12:28.452Z,3.83
2018-05-14T07:14:57.390Z,3.67
2018-05-14T07:17:26.367Z,3.60
2018-05-14T07:19:55.354Z,3.80
2018-05-14T07:22:24.304Z,3.70
2018-05-14T07:24:53.329Z,3.27
2018-05-14T07:27:22.284Z,3.90
2018-05-14T07:29:51.214Z,3.20
2018-05-14T07:32:20.284Z,3.53
2018-05-14T07:34:49.137Z,3.50
2018-05-14T07:37:18.064Z,3.37
2018-05-14T07:39:47.188Z,2.90
2018-05-14T07:42:16.148Z,3.33
2018-05-14T07:44:45.069Z,3.67
2018-05-14T07:47:14.040Z,3.80
2018-05-14T07:49:42.969Z,3.67
2018-05-14T07:52:11.895Z,3.57
2018-05-14T07:54:40.855Z,3.60
2018-05-14T07:57:09.981Z,3.60
2018-05-14T07:59:38.750Z,3.57
2018-05-14T08:02:07.688Z,3.70
2018-05-14T08:04:36.669Z,3.37
2018-05-14T08:07:05.612Z,3.43
2018-05-14T08:09:34.584Z,3.73
2018-05-14T08:12:03.484Z,3.80
2018-05-14T08:14:32.425Z,3.70
2018-05-14T08:17:01.385Z,3.83
2018-05-14T08:19:30.314Z,3.00
2018-05-14T08:21:59.304Z,3.40
2018-05-14T08:24:28.255Z,3.57
2018-05-14T08:26:57.184Z,3.70
2018-05-14T08:29:26.127Z,3.80
2018-05-14T08:31:55.145Z,3.60
2018-05-14T08:34:24.069Z,3.70
2018-05-14T08:36:52.976Z,4.00
2018-05-14T08:39:21.964Z,4.13
2018-05-14T08:41:50.905Z,3.37
2018-05-14T08:44:19.824Z,4.10
2018-05-14T08:46:48.805Z,4.03
2018-05-14T08:49:17.738Z,3.40
2018-05-14T08:51:46.667Z,3.93
2018-05-14T08:54:15.768Z,3.50
2018-05-14T08:56:44.669Z,3.70
2018-05-14T08:59:13.604Z,3.50
2018-05-14T09:01:42.550Z,3.53
2018-05-14T09:04:11.483Z,3.70
2018-05-14T09:06:40.465Z,3.30
2018-05-14T09:09:09.444Z,3.60
2018-05-14T09:11:38.383Z,4.37
2018-05-14T09:14:07.324Z,3.77
2018-05-14T09:16:36.309Z,3.63
2018-05-14T09:19:05.220Z,4.43
2018-05-14T09:21:34.184Z,3.50
2018-05-14T09:24:03.160Z,3.30
2018-05-14T09:26:32.090Z,3.90
2018-05-14T09:29:01.013Z,3.63
2018-05-14T09:31:30.017Z,3.50
2018-05-14T09:33:58.968Z,3.70
2018-05-14T09:36:27.861Z,3.90
2018-05-14T09:38:56.844Z,3.40
2018-05-14T09:41:25.784Z,4.07
2018-05-14T09:43:54.724Z,3.23
2018-05-14T09:46:23.724Z,3.53
2018-05-14T09:48:52.644Z,3.67
2018-05-14T09:51:21.559Z,3.57
2018-05-14T09:53:50.525Z,3.50
2018-05-14T09:56:19.464Z,3.40
2018-05-14T09:58:48.367Z,3.10
2018-05-14T10:01:17.325Z,3.23
2018-05-14T10:03:46.339Z,3.63
2018-05-14T10:06:15.247Z,3.70
2018-05-14T10:08:44.210Z,3.37
2018-05-14T10:11:13.142Z,3.83
2018-05-14T10:13:42.099Z,3.50
2018-05-14T10:16:11.084Z,3.20
2018-05-14T10:18:40.103Z,2.93
2018-05-14T10:21:08.962Z,3.40
2018-05-14T10:23:37.925Z,3.17
2018-05-14T10:26:06.820Z,3.23
2018-05-14T10:28:35.789Z,2.93
2018-05-14T10:31:04.785Z,3.57
2018-05-14T10:33:33.717Z,3.70
2018-05-14T10:36:02.690Z,3.43
2018-05-14T10:38:31.694Z,3.50
2018-05-14T10:41:00.632Z,3.20
2018-05-14T10:43:29.544Z,3.37
2018-05-14T10:45:58.619Z,3.73
2018-05-14T10:48:27.530Z,3.43
2018-05-14T10:50:56.439Z,3.33
2018-05-14T10:53:25.439Z,3.50
2018-05-14T10:55:54.354Z,3.17
2018-05-14T10:58:23.312Z,3.47
2018-05-14T11:00:52.274Z,3.43
2018-05-14T11:03:21.210Z,3.13
2018-05-14T11:05:50.144Z,3.53
2018-05-14T11:08:19.133Z,3.10
2018-05-14T11:10:48.070Z,3.13
2018-05-14T11:13:16.969Z,3.00
2018-05-14T11:15:45.935Z,2.73
2018-05-14T11:18:14.842Z,3.37
2018-05-14T11:20:43.784Z,2.97
2018-05-14T11:23:12.750Z,3.27
2018-05-14T11:25:41.705Z,2.97
2018-05-14T11:28:10.654Z,2.63
2018-05-14T11:30:39.607Z,3.20
2018-05-14T11:33:08.531Z,2.80
2018-05-14T11:35:37.448Z,3.40
2018-05-14T11:38:06.449Z,3.37
2018-05-14T11:40:35.330Z,2.57
2018-05-14T11:43:04.226Z,2.80
2018-05-14T11:45:33.189Z,2.60
2018-05-14T11:48:02.092Z,2.80
2018-05-14T11:50:31.081Z,3.10
2018-05-14T11:53:00.005Z,3.17
2018-05-14T11:55:28.918Z,3.33
2018-05-14T11:57:57.863Z,2.97
2018-05-14T12:00:26.843Z,3.53
2018-05-14T12:02:55.907Z,2.90
2018-05-14T12:05:24.770Z,3.63
2018-05-14T12:07:53.729Z,3.00
2018-05-14T12:10:22.652Z,3.03
2018-05-14T12:12:51.564Z,2.80
2018-05-14T12:15:20.553Z,2.97
2018-05-14T12:17:49.610Z,2.80
2018-05-14T12:20:18.528Z,3.03
2018-05-14T12:22:47.504Z,2.70
2018-05-14T12:27:51.756Z,3.20
2018-05-14T12:30:20.697Z,3.07
2018-05-14T12:32:49.681Z,2.60
2018-05-14T12:35:18.643Z,3.50
2018-05-14T12:37:47.554Z,3.03
2018-05-14T12:40:16.475Z,3.20
2018-05-14T12:42:45.477Z,3.20
2018-05-14T12:45:14.477Z,3.20
2018-05-14T12:47:43.395Z,3.57
2018-05-14T12:50:12.395Z,2.60
2018-05-14T12:52:41.354Z,3.10
2018-05-14T12:55:10.254Z,3.40
2018-05-14T12:57:39.211Z,3.10
2018-05-14T13:00:08.178Z,3.07
2018-05-14T13:02:37.078Z,3.37
2018-05-14T13:05:06.085Z,3.07
2018-05-14T13:07:35.026Z,3.23
2018-05-14T13:10:03.974Z,3.37
2018-05-14T13:12:32.953Z,3.20
2018-05-14T13:15:01.900Z,2.77
2018-05-14T13:17:30.806Z,3.33
2018-05-14T13:19:59.813Z,3.27
2018-05-14T13:22:28.774Z,3.00
2018-05-14T13:24:57.781Z,3.10
2018-05-14T13:27:26.816Z,3.40
2018-05-14T13:29:55.789Z,2.87
2018-05-14T13:32:24.816Z,3.30
2018-05-14T13:34:53.825Z,3.20
2018-05-14T13:37:22.803Z,2.97
2018-05-14T13:39:51.776Z,3.87
2018-05-14T13:42:20.776Z,3.30
2018-05-14T13:44:49.680Z,3.30
2018-05-14T13:47:19.043Z,3.87
2018-05-14T13:49:48.156Z,3.97
2018-05-14T13:52:17.097Z,3.40
2018-05-14T13:54:46.014Z,3.13
2018-05-14T13:57:15.130Z,3.10
2018-05-14T13:59:43.998Z,3.20
2018-05-14T14:02:13.006Z,3.40
2018-05-14T14:04:42.014Z,3.33
2018-05-14T14:07:10.936Z,3.87
2018-05-14T14:09:39.879Z,3.63
2018-05-14T14:12:08.870Z,3.53
2018-05-14T14:14:37.770Z,3.40
2018-05-14T14:17:06.699Z,3.33
2018-05-14T14:19:35.656Z,3.60
2018-05-14T14:22:04.587Z,3.87
2018-05-14T14:24:33.506Z,3.20
2018-05-14T14:27:02.476Z,3.70
2018-05-14T14:29:31.399Z,3.60
2018-05-14T14:32:00.446Z,3.97
2018-05-14T14:34:29.436Z,3.80
2018-05-14T14:36:58.383Z,3.50
2018-05-14T14:39:27.397Z,3.83
2018-05-14T14:41:56.377Z,3.83
2018-05-14T14:44:25.344Z,3.90
2018-05-14T14:46:54.286Z,4.27
2018-05-14T14:49:23.316Z,4.63
2018-05-14T14:51:52.256Z,7.37
2018-05-14T14:54:21.169Z,6.87
2018-05-14T14:56:50.128Z,6.67
2018-05-14T14:59:19.096Z,9.07
2018-05-14T15:01:48.012Z,3.60
2018-05-14T15:04:16.977Z,3.57
2018-05-14T15:06:47.242Z,3.33
2018-05-14T15:09:16.554Z,3.67
2018-05-14T15:11:45.471Z,3.87
2018-05-14T15:14:14.396Z,3.87
2018-05-14T15:16:43.431Z,4.13
2018-05-14T15:19:12.348Z,3.90
2018-05-14T15:21:41.274Z,4.07
2018-05-14T15:24:10.224Z,3.40
2018-05-14T15:26:39.135Z,3.50
2018-05-14T15:29:08.076Z,2.67
2018-05-14T15:31:37.027Z,3.13
2018-05-14T15:34:05.934Z,2.63
2018-05-14T15:36:34.943Z,2.97
2018-05-14T15:39:03.910Z,3.10
2018-05-14T15:41:32.798Z,3.20
2018-05-14T15:44:01.719Z,3.70
2018-05-14T15:46:30.687Z,2.87
2018-05-14T15:48:59.580Z,3.13
2018-05-14T15:51:28.519Z,3.30
2018-05-14T15:53:57.516Z,2.60
2018-05-14T15:56:26.533Z,2.87
2018-05-14T15:58:55.372Z,2.40
2018-05-14T16:01:24.379Z,2.90
2018-05-14T16:03:53.282Z,3.17
2018-05-14T16:06:22.199Z,2.87
2018-05-14T16:08:51.213Z,3.23
2018-05-14T16:11:20.122Z,3.50
2018-05-14T16:13:49.054Z,2.70
2018-05-14T16:16:18.053Z,4.27
2018-05-14T16:18:46.978Z,3.37
2018-05-14T16:21:15.915Z,3.30
2018-05-14T16:23:44.973Z,4.20
2018-05-14T16:26:13.920Z,2.93
2018-05-14T16:28:42.851Z,3.00
2018-05-14T16:31:11.821Z,3.10
2018-05-14T16:33:40.769Z,3.00
2018-05-14T16:36:09.728Z,2.60
2018-05-14T16:38:38.754Z,3.30
2018-05-14T16:41:07.712Z,2.60
2018-05-14T16:43:36.643Z,3.20
2018-05-14T16:46:05.614Z,3.07
2018-05-14T16:48:34.588Z,2.90
2018-05-14T16:51:03.528Z,4.10
2018-05-14T16:53:32.577Z,2.80
2018-05-14T16:56:01.546Z,3.57
2018-05-14T16:58:30.491Z,3.13
2018-05-14T17:00:59.519Z,3.23
2018-05-14T17:03:28.481Z,3.50
2018-05-14T17:05:57.454Z,3.40
2018-05-14T17:08:26.421Z,3.53
2018-05-14T17:10:55.341Z,3.80
2018-05-14T17:13:24.278Z,3.47
2018-05-14T17:15:56.476Z,3.10
2018-05-14T17:18:31.583Z,3.43
2018-05-14T17:21:00.611Z,3.80
2018-05-14T17:23:29.533Z,3.87
2018-05-14T17:25:58.429Z,3.93
2018-05-14T17:28:27.417Z,3.90
2018-05-14T17:30:56.351Z,4.10
2018-05-14T17:33:25.375Z,3.40
2018-05-14T17:35:54.333Z,4.60
2018-05-14T17:38:23.252Z,4.27
2018-05-14T17:40:52.180Z,4.23
2018-05-14T17:43:21.218Z,4.03
2018-05-14T17:45:50.155Z,4.30
2018-05-14T17:48:19.231Z,4.00
2018-05-14T17:50:48.194Z,3.80
2018-05-14T17:53:17.108Z,3.57
2018-05-14T17:55:46.036Z,4.90
2018-05-14T17:58:18.353Z,7.40
2018-05-14T18:00:47.299Z,10.40
2018-05-14T18:03:16.251Z,11.17
2018-05-14T18:05:45.218Z,10.23
2018-05-14T18:08:14.123Z,8.57
2018-05-14T18:10:43.324Z,5.20
2018-05-14T18:13:12.174Z,4.00
2018-05-14T18:15:41.074Z,3.50
2018-05-14T18:18:10.091Z,3.80
2018-05-14T18:20:39.042Z,3.47
2018-05-14T18:23:07.997Z,3.33
2018-05-14T18:25:37.535Z,3.67
2018-05-14T18:28:06.791Z,3.77
2018-05-14T18:30:35.716Z,4.10
2018-05-14T18:33:04.791Z,3.37
2018-05-14T18:35:33.710Z,4.07
2018-05-14T18:38:02.611Z,3.57
2018-05-14T18:40:31.592Z,3.67
2018-05-14T18:43:00.512Z,3.63
2018-05-14T18:45:29.654Z,4.37
2018-05-14T18:47:58.611Z,4.57
2018-05-14T18:50:27.505Z,4.33
2018-05-14T18:52:56.489Z,3.83
2018-05-14T18:55:25.448Z,4.30
2018-05-14T18:57:54.357Z,4.30
2018-05-14T19:00:23.360Z,4.20
2018-05-14T19:02:52.293Z,4.57
2018-05-14T19:05:21.226Z,4.27
2018-05-14T19:07:50.426Z,4.20
2018-05-14T19:10:19.436Z,3.37
2018-05-14T19:12:48.373Z,4.40
2018-05-14T19:15:17.328Z,3.50
2018-05-14T19:17:46.258Z,4.30
2018-05-14T19:20:15.159Z,4.47
2018-05-14T19:22:44.135Z,4.10
2018-05-14T19:25:13.051Z,3.70
2018-05-14T19:27:41.972Z,3.93
2018-05-14T19:30:10.970Z,4.40
2018-05-14T19:32:39.959Z,3.73
2018-05-14T19:35:08.895Z,3.90
2018-05-14T19:37:37.863Z,3.93
2018-05-14T19:40:06.772Z,4.27
2018-05-14T19:42:35.713Z,4.07
2018-05-14T19:45:04.680Z,4.40
2018-05-14T19:47:33.590Z,3.97
2018-05-14T19:50:02.502Z,4.20
2018-05-14T19:52:31.450Z,4.83
2018-05-14T19:55:00.373Z,5.40
2018-05-14T19:57:29.277Z,5.77
2018-05-14T19:59:58.332Z,6.80
2018-05-14T20:02:27.260Z,6.20
2018-05-14T20:04:56.251Z,6.30
2018-05-14T20:07:25.206Z,5.77
2018-05-14T20:09:54.132Z,5.90
2018-05-14T20:12:23.042Z,6.20
2018-05-14T20:14:52.004Z,6.23
2018-05-14T20:17:20.900Z,5.40
2018-05-14T20:19:49.811Z,5.40
2018-05-14T20:22:18.775Z,5.73
2018-05-14T20:24:48.672Z,6.37
2018-05-14T20:27:17.598Z,5.07
2018-05-14T20:29:46.590Z,5.70
2018-05-14T20:32:15.527Z,6.07
2018-05-14T20:34:44.435Z,6.50
2018-05-14T20:37:13.506Z,6.90
2018-05-14T20:39:42.348Z,6.27
2018-05-14T20:42:11.263Z,6.70
2018-05-14T20:44:40.223Z,7.30
2018-05-14T20:47:09.128Z,8.00
2018-05-14T20:49:38.048Z,7.70
2018-05-14T20:52:07.041Z,8.50
2018-05-14T20:54:35.978Z,8.63
2018-05-14T20:57:04.884Z,7.90
2018-05-14T20:59:33.872Z,7.77
2018-05-14T21:02:02.801Z,7.43
2018-05-14T21:04:31.733Z,8.00
2018-05-14T21:07:00.717Z,7.77
2018-05-14T21:09:29.666Z,7.10
2018-05-14T21:11:58.597Z,6.70
2018-05-14T21:14:27.565Z,5.90
2018-05-14T21:16:56.491Z,5.67
2018-05-14T21:19:25.530Z,5.43
2018-05-14T21:21:54.519Z,4.67
2018-05-14T21:24:23.444Z,5.00
2018-05-14T21:26:52.358Z,4.57
2018-05-14T21:29:21.326Z,4.50
2018-05-14T21:31:50.236Z,4.67
2018-05-14T21:34:19.144Z,4.93
2018-05-14T21:36:48.147Z,4.53
2018-05-14T21:39:17.079Z,4.37
2018-05-14T21:41:45.991Z,4.40
2018-05-14T21:44:14.975Z,4.47
2018-05-14T21:46:43.890Z,4.70
2018-05-14T21:49:12.797Z,4.60
2018-05-14T21:51:41.820Z,4.10
2018-05-14T21:54:10.806Z,4.70
2018-05-14T21:56:39.720Z,4.30
2018-05-14T21:59:08.677Z,3.90
2018-05-14T22:01:37.598Z,4.10
2018-05-14T22:04:06.526Z,4.17
2018-05-14T22:06:35.477Z,3.83
2018-05-14T22:09:04.436Z,4.07
2018-05-14T22:11:33.353Z,4.27
2018-05-14T22:14:02.346Z,4.47
2018-05-14T22:16:31.252Z,4.53
2018-05-14T22:19:00.162Z,4.90
2018-05-14T22:21:29.205Z,5.57
2018-05-14T22:23:58.102Z,4.40
2018-05-14T22:26:27.015Z,5.53
2018-05-14T22:28:55.984Z,6.20
2018-05-14T22:31:24.913Z,5.40
2018-05-14T22:33:53.861Z,5.70
2018-05-14T22:36:22.818Z,5.50
2018-05-14T22:38:51.782Z,5.17
2018-05-14T22:41:20.688Z,4.73
2018-05-14T22:43:49.648Z,4.70
2018-05-14T22:46:18.572Z,4.70
2018-05-14T22:48:47.518Z,4.90
2018-05-14T22:51:16.472Z,4.83
2018-05-14T22:53:45.421Z,5.00
2018-05-14T22:56:14.312Z,5.47
2018-05-14T22:58:43.259Z,4.77
2018-05-14T23:01:12.210Z,5.00
2018-05-14T23:03:41.091Z,5.40
2018-05-14T23:06:10.104Z,5.03
2018-05-14T23:08:39.009Z,4.60
2018-05-14T23:11:07.922Z,4.43
2018-05-14T23:13:36.881Z,4.67
2018-05-14T23:16:05.805Z,4.93
2018-05-14T23:18:34.735Z,5.10
2018-05-14T23:21:03.680Z,5.30
2018-05-14T23:23:32.575Z,5.00
2018-05-14T23:26:01.496Z,5.43
2018-05-14T23:28:30.461Z,5.27
2018-05-14T23:30:59.359Z,5.07
2018-05-14T23:33:28.267Z,5.10
2018-05-14T23:35:57.232Z,4.87
2018-05-14T23:38:26.142Z,5.00
2018-05-14T23:40:55.030Z,4.90
2018-05-14T23:43:23.971Z,5.13
2018-05-14T23:45:52.929Z,4.97
2018-05-14T23:48:21.786Z,4.77
2018-05-14T23:50:50.749Z,4.73
2018-05-14T23:53:19.633Z,4.73
2018-05-14T23:55:48.552Z,4.73
2018-05-14T23:58:17.512Z,5.63
